Airfield :
LOGIN :

Register | Disclaimer

   EN    FR    IT 

 










Legend :    VFR   Marginal VFR   IFR   Intensive IFR   Very Intensive IFR
Visi :
Ceiling :
>= 8 km
>= 3000ft
5 to 8 km
1000 to 3000 ft
1500m to 5 km
500 to 1000 ft
800 to 1500m
200 to 500 ft
< 800m
< 200 ft
Symbols :   Thunderstorms  Fog  Heavy snow  Heavy precipitations  Wind > 20 kt
SIGMETs :     Misc.  Thunderstorms  Icing  Turbulence  Mountain Waves  Volcanic Ashes







- Airport Elevation : 995 ft
- IATA code : KTW


EPKT - Katowice

CURRENT METAR :
  • 240230Z VRB02KT 5000 BR FEW042 M03/M09 Q1038

EXPIRED METARs :
  • 240200Z 27005KT 6000 FEW041 M04/M09 Q1039
  • 240130Z 23004KT 7000 NSC M03/M09 Q1039
  • 240100Z 22003KT 6000 NSC M04/M09 Q1039
  • 240030Z VRB01KT 6000 NSC M05/M09 Q1040
  • 240000Z VRB01KT 8000 NSC M06/M09 Q1040

TAF TAF EPKT
Valid from the 24 at 00:00 until the 25 at 00:00 UTC


232330Z 2400/2424 VRB02KT CAVOK
BECMG 2406/2409 25010KT
No reported NOTAMs for that airfield.



MET'MAP, your aeronautical weather chart ! - Copyright ORBIFLY December 2007 - Disclaimer

ORBIFLY MET'MAP TEAM :

Programming & Development : Alexandra Zaïnal
Concept & Development : Baudouin d'Aumeries
Co-Development & Prog : Marc-Olivier Méhu
Technical & hardware support : Manuel Goepfert

Contact : metmap@orbifly.com




SOURCES & CREDITS :

   NOAA